Holeby, Denmark
Current Conditions -  °F | °C
As of 2:50 AM on Tuesday 25 Nov 2014 (Local Time) from EKAV Reporting Station
Broken Clouds Broken Clouds  
Wind Chill: 41°   Ceiling: 22000
Heat Index: 48°   Visibility: 6mi
Dew Point: 41°   Wind: 20mph
Humidity: 76%   Direction: 290°WNW
Pressure: 30.15"   Gusts: NA
Location:  54.71°N, 11.46°E
Report Text: EKAV 250150Z AUTO 29017KT 9999NDV BKN220/// 09/05 Q1021
Loading
Personal Weather Stations






























Interactive Weather Map New forecast layout! Learn more

10-Day Weather Forecast

Advertisements
Track Severe Weather on mobile